createdAt,value
2023-05-04T00:02:22.302Z,74.27
2023-05-04T00:04:51.775Z,75.07
2023-05-04T00:07:18.430Z,74.63
2023-05-04T00:09:44.813Z,74.07
2023-05-04T00:12:11.541Z,75.47
2023-05-04T00:14:37.913Z,75.21
2023-05-04T00:17:06.496Z,74.97
2023-05-04T00:19:34.572Z,74.69
2023-05-04T00:22:01.125Z,74.21
2023-05-04T00:24:27.670Z,74.52
2023-05-04T00:26:54.559Z,75.62
2023-05-04T00:29:21.117Z,74.85
2023-05-04T00:31:47.654Z,75.11
2023-05-04T00:34:15.594Z,74.75
2023-05-04T00:36:42.694Z,74.58
2023-05-04T00:39:09.065Z,74.36
2023-05-04T00:41:35.466Z,73.76
2023-05-04T00:44:04.199Z,74.46
2023-05-04T00:46:31.063Z,75.61
2023-05-04T00:48:59.417Z,75.64
2023-05-04T00:51:26.395Z,74.10
2023-05-04T00:53:53.762Z,76.08
2023-05-04T00:56:21.442Z,75.34
2023-05-04T00:58:48.026Z,75.24
2023-05-04T01:01:14.461Z,75.61
2023-05-04T01:03:41.035Z,75.96
2023-05-04T01:06:11.412Z,74.92
2023-05-04T01:08:39.200Z,75.52
2023-05-04T01:11:13.491Z,76.06
2023-05-04T01:13:39.905Z,74.83
2023-05-04T01:16:06.355Z,74.96
2023-05-04T01:18:32.750Z,75.69
2023-05-04T01:20:59.145Z,74.92
2023-05-04T01:23:26.220Z,75.39
2023-05-04T01:26:11.719Z,75.18
2023-05-04T01:28:42.161Z,75.70
2023-05-04T01:31:09.193Z,75.95
2023-05-04T01:33:35.708Z,76.37
2023-05-04T01:36:02.036Z,75.94
2023-05-04T01:38:28.406Z,75.57
2023-05-04T01:40:54.913Z,76.20
2023-05-04T01:43:21.293Z,75.83
2023-05-04T01:45:48.033Z,75.21
2023-05-04T01:48:14.465Z,74.59
2023-05-04T01:50:41.130Z,74.19
2023-05-04T01:53:07.470Z,74.29
2023-05-04T01:55:33.924Z,74.67
2023-05-04T01:58:00.582Z,74.39
2023-05-04T02:00:27.472Z,75.94
2023-05-04T02:02:53.908Z,76.69
2023-05-04T02:05:20.306Z,77.03
2023-05-04T02:07:46.702Z,76.62
2023-05-04T02:10:14.392Z,77.13
2023-05-04T02:12:42.883Z,77.08
2023-05-04T02:15:09.521Z,77.89
2023-05-04T02:17:36.150Z,76.92
2023-05-04T02:20:04.645Z,76.37
2023-05-04T02:22:31.384Z,76.22
2023-05-04T02:24:57.746Z,75.45
2023-05-04T02:27:24.087Z,75.73
2023-05-04T02:29:50.419Z,76.39
2023-05-04T02:32:16.877Z,76.15
2023-05-04T02:34:43.229Z,76.37
2023-05-04T02:37:09.658Z,76.55
2023-05-04T02:39:36.354Z,76.55
2023-05-04T02:42:03.119Z,75.88
2023-05-04T02:44:29.465Z,76.15
2023-05-04T02:46:55.869Z,76.04
2023-05-04T02:49:22.801Z,76.04
2023-05-04T02:51:49.169Z,76.38
2023-05-04T02:54:15.547Z,75.75
2023-05-04T02:56:41.881Z,76.36
2023-05-04T02:59:08.241Z,77.22
2023-05-04T03:01:35.088Z,78.06
2023-05-04T03:04:01.574Z,77.59
2023-05-04T03:06:28.018Z,77.08
2023-05-04T03:08:54.396Z,76.69
2023-05-04T03:11:20.844Z,76.60
2023-05-04T03:13:47.197Z,76.21
2023-05-04T03:16:13.611Z,75.70
2023-05-04T03:18:39.979Z,75.63
2023-05-04T03:21:06.313Z,76.14
2023-05-04T03:23:32.672Z,77.27
2023-05-04T03:25:59.010Z,77.00
2023-05-04T03:28:25.364Z,76.86
2023-05-04T03:30:51.833Z,76.96
2023-05-04T03:33:18.177Z,76.68
2023-05-04T03:35:44.532Z,77.53
2023-05-04T03:38:11.452Z,77.82
2023-05-04T03:40:37.814Z,77.28
2023-05-04T03:43:04.156Z,77.92
2023-05-04T03:45:30.533Z,77.46
2023-05-04T03:47:57.286Z,77.96
2023-05-04T03:50:23.750Z,78.20
2023-05-04T03:52:52.413Z,78.13
2023-05-04T03:55:19.168Z,78.53
2023-05-04T03:57:45.703Z,78.45
2023-05-04T04:00:12.344Z,78.20
2023-05-04T04:02:38.862Z,78.15
2023-05-04T04:05:06.446Z,77.80
2023-05-04T04:07:33.215Z,77.73
2023-05-04T04:09:59.556Z,77.42
2023-05-04T04:12:25.900Z,77.23
2023-05-04T04:14:52.535Z,77.56
2023-05-04T04:17:18.999Z,76.72
2023-05-04T04:19:45.343Z,76.25
2023-05-04T04:22:11.719Z,77.05
2023-05-04T04:24:38.069Z,76.38
2023-05-04T04:27:04.398Z,76.04
2023-05-04T04:29:30.830Z,76.01
2023-05-04T04:31:57.255Z,74.83
2023-05-04T04:34:23.878Z,74.58
2023-05-04T04:36:51.243Z,74.37
2023-05-04T04:39:17.909Z,74.07
2023-05-04T04:41:44.319Z,73.86
2023-05-04T04:44:11.657Z,73.21
2023-05-04T04:46:38.062Z,72.70
2023-05-04T04:49:06.796Z,73.09
2023-05-04T04:51:33.266Z,72.73
2023-05-04T04:53:59.684Z,72.63
2023-05-04T04:56:26.469Z,72.48
2023-05-04T04:58:53.422Z,71.42
2023-05-04T05:01:19.863Z,72.52
2023-05-04T05:03:46.335Z,71.52
2023-05-04T05:06:14.178Z,70.54
2023-05-04T05:08:40.603Z,70.34
2023-05-04T05:11:07.095Z,70.73
2023-05-04T05:13:33.559Z,69.76
2023-05-04T05:15:59.936Z,68.81
2023-05-04T05:18:26.917Z,68.56
2023-05-04T05:20:53.318Z,68.63
2023-05-04T05:23:19.705Z,67.36
2023-05-04T05:25:46.114Z,66.94
2023-05-04T05:28:13.484Z,65.31
2023-05-04T05:30:39.899Z,65.48
2023-05-04T05:33:06.362Z,63.67
2023-05-04T05:35:32.821Z,63.55
2023-05-04T05:37:59.399Z,62.80
2023-05-04T05:40:25.856Z,61.69
2023-05-04T05:42:52.405Z,61.99
2023-05-04T05:45:19.253Z,61.50
2023-05-04T05:47:45.632Z,59.77
2023-05-04T05:50:13.356Z,59.97
2023-05-04T05:52:39.729Z,60.12
2023-05-04T05:55:06.139Z,58.48
2023-05-04T05:57:32.538Z,58.53
2023-05-04T05:59:58.989Z,57.74
2023-05-04T06:02:26.302Z,57.15
2023-05-04T06:04:52.843Z,55.53
2023-05-04T06:07:19.670Z,56.38
2023-05-04T06:09:46.034Z,54.63
2023-05-04T06:12:14.992Z,55.16
2023-05-04T06:14:41.419Z,53.62
2023-05-04T06:17:07.775Z,54.36
2023-05-04T06:19:35.355Z,52.09
2023-05-04T06:22:01.826Z,51.72
2023-05-04T06:24:29.869Z,52.08
2023-05-04T06:26:56.401Z,51.06
2023-05-04T06:29:22.811Z,49.83
2023-05-04T06:31:49.305Z,50.38
2023-05-04T06:34:17.024Z,49.74
2023-05-04T06:36:43.570Z,48.58
2023-05-04T06:39:10.386Z,48.01
2023-05-04T06:41:37.211Z,48.79
2023-05-04T06:44:04.461Z,47.39
2023-05-04T06:46:31.523Z,48.24
2023-05-04T06:48:58.300Z,48.64
2023-05-04T06:51:24.745Z,48.69
2023-05-04T06:53:51.085Z,48.11
2023-05-04T06:56:17.453Z,48.36
2023-05-04T06:58:43.821Z,48.47
2023-05-04T07:01:11.239Z,46.85
2023-05-04T07:03:39.127Z,47.23
2023-05-04T07:06:05.987Z,48.32
2023-05-04T07:08:33.142Z,47.90
2023-05-04T07:10:59.590Z,48.46
2023-05-04T07:13:25.975Z,48.15
2023-05-04T07:15:52.426Z,47.06
2023-05-04T07:18:18.848Z,46.12
2023-05-04T07:20:47.474Z,45.49
2023-05-04T07:23:13.829Z,45.75
2023-05-04T07:25:40.180Z,44.32
2023-05-04T07:28:06.539Z,44.00
2023-05-04T07:30:32.895Z,45.56
2023-05-04T07:32:59.348Z,45.89
2023-05-04T07:35:25.726Z,43.25
2023-05-04T07:37:52.104Z,43.80
2023-05-04T07:40:18.606Z,42.12
2023-05-04T07:42:46.388Z,42.10
2023-05-04T07:45:13.077Z,43.87
2023-05-04T07:47:39.461Z,42.66
2023-05-04T07:50:06.301Z,42.48
2023-05-04T07:52:33.065Z,42.14
2023-05-04T07:55:00.779Z,41.34
2023-05-04T07:57:27.420Z,42.25
2023-05-04T07:59:55.947Z,42.52
2023-05-04T08:02:22.762Z,41.27
2023-05-04T08:04:49.352Z,41.21
2023-05-04T08:07:17.520Z,41.38
2023-05-04T08:09:43.944Z,40.39
2023-05-04T08:12:12.285Z,41.87
2023-05-04T08:14:39.285Z,40.48
2023-05-04T08:17:05.712Z,38.99
2023-05-04T08:19:32.077Z,39.96
2023-05-04T08:21:58.436Z,39.33
2023-05-04T08:24:28.104Z,38.50
2023-05-04T08:27:07.251Z,37.80
2023-05-04T08:29:37.111Z,40.14
2023-05-04T08:32:03.904Z,37.94
2023-05-04T08:34:32.853Z,39.06
2023-05-04T08:36:59.494Z,37.11
2023-05-04T08:39:25.886Z,37.25
2023-05-04T08:41:52.451Z,36.90
2023-05-04T08:44:21.568Z,36.80
2023-05-04T08:46:56.664Z,35.70
2023-05-04T08:49:23.779Z,37.15
2023-05-04T08:51:52.802Z,36.88
2023-05-04T08:54:19.185Z,37.79
2023-05-04T08:56:46.988Z,36.57
2023-05-04T08:59:20.277Z,35.89
2023-05-04T09:01:51.245Z,35.49
2023-05-04T09:04:20.322Z,34.99
2023-05-04T09:06:47.827Z,34.52
2023-05-04T09:09:16.434Z,34.70
2023-05-04T09:11:43.679Z,33.20
2023-05-04T09:14:10.143Z,34.85
2023-05-04T09:16:36.777Z,33.44
2023-05-04T09:19:04.894Z,34.80
2023-05-04T09:21:31.605Z,32.77
2023-05-04T09:23:58.237Z,34.04
2023-05-04T09:26:30.942Z,35.69
2023-05-04T09:28:57.727Z,33.13
2023-05-04T09:31:24.442Z,32.30
2023-05-04T09:33:53.246Z,32.13
2023-05-04T09:36:21.976Z,30.57
2023-05-04T09:38:48.844Z,32.40
2023-05-04T09:41:15.362Z,30.19
2023-05-04T09:43:42.961Z,31.69
2023-05-04T09:46:18.935Z,30.72
2023-05-04T09:48:52.347Z,30.80
2023-05-04T09:51:21.233Z,31.84
2023-05-04T09:53:48.506Z,30.29
2023-05-04T09:56:22.117Z,29.56
2023-05-04T09:58:49.157Z,30.15
2023-05-04T10:01:16.136Z,31.01
2023-05-04T10:03:43.424Z,29.74
2023-05-04T10:06:10.784Z,29.76
2023-05-04T10:08:38.002Z,29.48
2023-05-04T10:11:04.388Z,30.28
2023-05-04T10:13:30.985Z,28.69
2023-05-04T10:16:09.450Z,32.76
2023-05-04T10:18:35.976Z,32.65
2023-05-04T10:21:20.699Z,32.85
2023-05-04T10:23:47.324Z,33.28
2023-05-04T10:26:13.674Z,31.76
2023-05-04T10:28:39.990Z,31.90
2023-05-04T10:31:07.539Z,32.04
2023-05-04T10:33:42.672Z,30.80
2023-05-04T10:36:09.823Z,32.16
2023-05-04T10:38:36.599Z,30.76
2023-05-04T10:41:18.701Z,31.65
2023-05-04T10:43:54.231Z,32.65
2023-05-04T10:46:21.545Z,32.41
2023-05-04T10:48:48.498Z,31.49
2023-05-04T10:51:32.629Z,32.25
2023-05-04T10:54:05.335Z,31.61
2023-05-04T10:56:31.683Z,32.44
2023-05-04T10:59:07.686Z,32.00
2023-05-04T11:01:41.198Z,33.22
2023-05-04T11:04:07.771Z,32.06
2023-05-04T11:06:48.356Z,30.94
2023-05-04T11:09:15.409Z,30.16
2023-05-04T11:11:42.800Z,30.13
2023-05-04T11:14:10.740Z,29.77
2023-05-04T11:16:37.142Z,30.39
2023-05-04T11:19:06.875Z,31.09
2023-05-04T11:21:33.261Z,31.28
2023-05-04T11:24:00.234Z,30.38
2023-05-04T11:26:26.654Z,30.31
2023-05-04T11:28:53.073Z,30.34
2023-05-04T11:31:22.583Z,31.35
2023-05-04T11:33:49.555Z,31.19
2023-05-04T11:36:16.620Z,32.14
2023-05-04T11:38:43.538Z,32.70
2023-05-04T11:41:10.023Z,33.88
2023-05-04T11:43:37.339Z,33.80
2023-05-04T11:46:04.679Z,34.22
2023-05-04T11:48:33.138Z,34.83
2023-05-04T11:50:59.638Z,34.51
2023-05-04T11:53:26.332Z,34.30
2023-05-04T11:55:54.410Z,34.02
2023-05-04T11:58:24.051Z,32.93
2023-05-04T12:00:51.258Z,33.68
2023-05-04T12:03:24.547Z,33.63
2023-05-04T12:05:55.249Z,33.69
2023-05-04T12:08:31.946Z,33.50
2023-05-04T12:11:10.649Z,33.92
2023-05-04T12:13:37.204Z,34.91
2023-05-04T12:16:10.676Z,34.78
2023-05-04T12:18:37.290Z,32.96
2023-05-04T12:21:10.671Z,33.47
2023-05-04T12:23:37.251Z,33.24
2023-05-04T12:26:04.020Z,32.14
2023-05-04T12:28:30.371Z,35.61
2023-05-04T12:30:56.828Z,36.37
2023-05-04T12:33:23.621Z,34.40
2023-05-04T12:35:49.953Z,33.79
2023-05-04T12:38:16.292Z,33.40
2023-05-04T12:40:43.135Z,35.59
2023-05-04T12:43:10.310Z,35.43
2023-05-04T12:45:36.796Z,35.08
2023-05-04T12:48:03.292Z,34.97
2023-05-04T12:50:29.743Z,34.42
2023-05-04T12:52:56.100Z,34.58
2023-05-04T12:55:25.212Z,36.39
2023-05-04T12:57:51.953Z,38.16
2023-05-04T13:00:18.441Z,37.93
2023-05-04T13:02:44.986Z,38.88
2023-05-04T13:05:13.249Z,38.41
2023-05-04T13:07:39.604Z,38.19
2023-05-04T13:10:06.254Z,38.03
2023-05-04T13:12:33.023Z,39.53
2023-05-04T13:15:00.319Z,37.96
2023-05-04T13:17:27.597Z,39.21
2023-05-04T13:19:54.380Z,38.70
2023-05-04T13:22:21.338Z,39.29
2023-05-04T13:24:47.801Z,39.67
2023-05-04T13:27:15.021Z,39.97
2023-05-04T13:29:44.154Z,41.08
2023-05-04T13:32:10.681Z,40.78
2023-05-04T13:34:37.039Z,41.07
2023-05-04T13:37:03.629Z,40.78
2023-05-04T13:39:30.111Z,42.58
2023-05-04T13:41:56.493Z,42.31
2023-05-04T13:44:22.932Z,42.73
2023-05-04T13:46:49.407Z,42.97
2023-05-04T13:49:15.974Z,42.45
2023-05-04T13:51:43.231Z,43.08
2023-05-04T13:54:09.670Z,42.93
2023-05-04T13:56:36.022Z,42.39
2023-05-04T13:59:02.395Z,42.21
2023-05-04T14:01:28.853Z,42.48
2023-05-04T14:03:55.263Z,42.46
2023-05-04T14:06:21.906Z,43.34
2023-05-04T14:08:48.365Z,43.42
2023-05-04T14:11:14.713Z,43.68
2023-05-04T14:13:41.087Z,43.73
2023-05-04T14:16:07.507Z,44.39
2023-05-04T14:18:33.995Z,43.92
2023-05-04T14:21:00.549Z,43.08
2023-05-04T14:23:27.363Z,41.82
2023-05-04T14:25:55.681Z,42.35
2023-05-04T14:28:24.694Z,42.29
2023-05-04T14:30:51.151Z,42.50
2023-05-04T14:33:21.104Z,43.01
2023-05-04T14:35:48.365Z,42.97
2023-05-04T14:38:14.987Z,42.21
2023-05-04T14:40:41.325Z,41.66
2023-05-04T14:43:07.962Z,42.10
2023-05-04T14:45:35.001Z,43.27
2023-05-04T14:48:02.325Z,43.68
2023-05-04T14:50:28.884Z,44.76
2023-05-04T14:52:55.380Z,44.43
2023-05-04T14:55:21.763Z,44.15
2023-05-04T14:57:48.137Z,44.39
2023-05-04T15:00:17.035Z,44.08
2023-05-04T15:02:43.755Z,45.00
2023-05-04T15:05:12.471Z,44.78
2023-05-04T15:07:39.489Z,44.79
2023-05-04T15:10:08.086Z,45.26
2023-05-04T15:12:35.125Z,45.23
2023-05-04T15:15:01.814Z,45.65
2023-05-04T15:17:28.226Z,45.20
2023-05-04T15:19:54.595Z,45.79
2023-05-04T15:22:21.694Z,45.62
2023-05-04T15:24:48.074Z,44.77
2023-05-04T15:27:14.782Z,44.61
2023-05-04T15:29:41.192Z,44.65
2023-05-04T15:32:07.596Z,44.71
2023-05-04T15:34:34.305Z,45.84
2023-05-04T15:37:00.687Z,46.44
2023-05-04T15:39:27.087Z,47.43
2023-05-04T15:41:53.488Z,48.64
2023-05-04T15:44:21.021Z,48.80
2023-05-04T15:46:47.536Z,50.45
2023-05-04T15:49:14.378Z,50.23
2023-05-04T15:51:42.643Z,51.07
2023-05-04T15:54:09.054Z,50.98
2023-05-04T15:56:36.097Z,51.34
2023-05-04T15:59:05.449Z,52.67
2023-05-04T16:01:32.164Z,52.39
2023-05-04T16:04:02.111Z,52.63
2023-05-04T16:06:28.880Z,51.23
2023-05-04T16:08:55.499Z,50.52
2023-05-04T16:11:21.846Z,50.14
2023-05-04T16:13:48.256Z,51.34
2023-05-04T16:16:17.572Z,52.30
2023-05-04T16:18:44.275Z,52.37
2023-05-04T16:21:14.021Z,52.64
2023-05-04T16:23:40.926Z,52.09
2023-05-04T16:26:09.954Z,52.44
2023-05-04T16:28:36.848Z,51.90
2023-05-04T16:31:05.850Z,51.29
2023-05-04T16:33:32.432Z,51.23
2023-05-04T16:35:59.843Z,51.68
2023-05-04T16:38:26.274Z,51.45
2023-05-04T16:40:52.608Z,52.75
2023-05-04T16:43:19.328Z,52.63
2023-05-04T16:45:46.003Z,51.70
2023-05-04T16:48:12.452Z,52.75
2023-05-04T16:50:39.072Z,53.60
2023-05-04T16:53:08.187Z,53.90
2023-05-04T16:55:35.917Z,53.75
2023-05-04T16:58:02.544Z,54.17
2023-05-04T17:00:29.104Z,53.70
2023-05-04T17:02:56.975Z,54.42
2023-05-04T17:05:23.824Z,54.16
2023-05-04T17:07:50.652Z,54.17
2023-05-04T17:10:18.653Z,54.07
2023-05-04T17:12:45.208Z,54.46
2023-05-04T17:15:12.394Z,54.50
2023-05-04T17:17:38.836Z,54.64
2023-05-04T17:20:06.194Z,54.94
2023-05-04T17:22:32.779Z,54.21
2023-05-04T17:24:59.224Z,54.80
2023-05-04T17:27:25.643Z,56.15
2023-05-04T17:29:52.088Z,56.67
2023-05-04T17:32:18.616Z,56.30
2023-05-04T17:34:45.040Z,56.38
2023-05-04T17:37:11.367Z,56.44
2023-05-04T17:39:37.697Z,55.67
2023-05-04T17:42:04.130Z,55.91
2023-05-04T17:44:32.692Z,55.70
2023-05-04T17:46:59.264Z,56.55
2023-05-04T17:49:25.767Z,57.24
2023-05-04T17:51:53.131Z,57.94
2023-05-04T17:54:19.470Z,58.29
2023-05-04T17:56:45.894Z,59.11
2023-05-04T17:59:12.307Z,60.81
2023-05-04T18:01:38.655Z,62.08
2023-05-04T18:04:05.170Z,62.00
2023-05-04T18:06:32.498Z,61.09
2023-05-04T18:08:59.224Z,62.15
2023-05-04T18:11:26.165Z,63.35
2023-05-04T18:13:52.595Z,62.97
2023-05-04T18:16:19.095Z,63.92
2023-05-04T18:18:45.851Z,63.92
2023-05-04T18:21:12.367Z,64.33
2023-05-04T18:23:38.666Z,64.34
2023-05-04T18:26:05.263Z,64.65
2023-05-04T18:28:32.136Z,65.26
2023-05-04T18:30:58.673Z,65.83
2023-05-04T18:33:25.094Z,66.18
2023-05-04T18:35:51.852Z,65.58
2023-05-04T18:38:18.780Z,66.22
2023-05-04T18:40:45.544Z,66.39
2023-05-04T18:43:11.951Z,66.11
2023-05-04T18:45:38.342Z,66.29
2023-05-04T18:48:04.940Z,67.31
2023-05-04T18:50:31.336Z,69.28
2023-05-04T18:52:57.844Z,66.64
2023-05-04T18:55:24.271Z,63.58
2023-05-04T18:57:51.408Z,63.11
2023-05-04T19:00:21.379Z,62.91
2023-05-04T19:02:47.883Z,63.01
2023-05-04T19:05:15.002Z,62.55
2023-05-04T19:07:41.465Z,61.86
2023-05-04T19:10:08.580Z,62.24
2023-05-04T19:12:35.425Z,62.17
2023-05-04T19:17:37.122Z,61.92
2023-05-04T19:20:03.865Z,61.35
2023-05-04T19:22:30.240Z,62.78
2023-05-04T19:24:56.665Z,63.47
2023-05-04T19:27:23.001Z,65.23
2023-05-04T19:29:49.356Z,65.59
2023-05-04T19:32:23.463Z,66.17
2023-05-04T19:34:51.089Z,66.76
2023-05-04T19:37:17.649Z,67.40
2023-05-04T19:39:43.980Z,69.94
2023-05-04T19:42:10.417Z,70.29
2023-05-04T19:44:37.145Z,70.68
2023-05-04T19:47:03.676Z,69.61
2023-05-04T19:49:30.103Z,69.86
2023-05-04T19:51:56.454Z,69.98
2023-05-04T19:54:22.840Z,71.45
2023-05-04T19:56:49.250Z,70.55
2023-05-04T19:59:15.795Z,70.96
2023-05-04T20:01:42.157Z,70.82
2023-05-04T20:04:08.573Z,70.19
2023-05-04T20:06:35.645Z,72.77
2023-05-04T20:09:02.380Z,73.05
2023-05-04T20:11:28.729Z,72.85
2023-05-04T20:13:55.831Z,73.57
2023-05-04T20:16:22.297Z,73.24
2023-05-04T20:18:49.075Z,74.00
2023-05-04T20:21:15.488Z,73.69
2023-05-04T20:23:41.912Z,74.44
2023-05-04T20:26:08.221Z,74.62
2023-05-04T20:28:34.562Z,73.36
2023-05-04T20:31:02.790Z,73.30
2023-05-04T20:33:29.144Z,73.10
2023-05-04T20:35:55.547Z,74.34
2023-05-04T20:38:22.004Z,75.17
2023-05-04T20:40:49.001Z,74.40
2023-05-04T20:43:16.371Z,75.10
2023-05-04T20:45:42.706Z,74.35
2023-05-04T20:48:09.178Z,73.46
2023-05-04T20:50:35.969Z,75.51
2023-05-04T20:53:02.807Z,75.14
2023-05-04T20:55:29.284Z,75.39
2023-05-04T20:57:55.714Z,76.13
2023-05-04T21:00:22.060Z,76.34
2023-05-04T21:02:48.739Z,75.85
2023-05-04T21:05:15.312Z,77.06
2023-05-04T21:07:41.654Z,75.92
2023-05-04T21:10:08.626Z,76.05
2023-05-04T21:12:35.354Z,75.54
2023-05-04T21:15:01.724Z,75.00
2023-05-04T21:17:28.152Z,75.60
2023-05-04T21:19:54.546Z,74.74
2023-05-04T21:22:21.242Z,74.98
2023-05-04T21:24:48.739Z,74.29
2023-05-04T21:27:15.143Z,73.55
2023-05-04T21:29:41.517Z,73.19
2023-05-04T21:32:08.038Z,73.15
2023-05-04T21:34:34.410Z,73.36
2023-05-04T21:37:00.786Z,73.26
2023-05-04T21:39:27.141Z,72.94
2023-05-04T21:41:53.548Z,73.15
2023-05-04T21:44:19.914Z,72.24
2023-05-04T21:46:46.294Z,72.02
2023-05-04T21:49:12.680Z,72.84
2023-05-04T21:51:39.005Z,71.64
2023-05-04T21:54:05.446Z,72.16
2023-05-04T21:56:31.835Z,71.34
2023-05-04T21:58:58.188Z,71.09
2023-05-04T22:01:24.865Z,71.16
2023-05-04T22:03:52.853Z,70.79
2023-05-04T22:06:21.514Z,70.35
2023-05-04T22:08:47.995Z,70.66
2023-05-04T22:11:14.346Z,70.32
2023-05-04T22:13:40.759Z,69.68
2023-05-04T22:16:08.366Z,69.93
2023-05-04T22:18:34.738Z,69.45
2023-05-04T22:21:01.184Z,68.75
2023-05-04T22:23:27.514Z,68.98
2023-05-04T22:25:53.923Z,68.88
2023-05-04T22:28:20.788Z,68.66
2023-05-04T22:30:47.205Z,69.05
2023-05-04T22:33:13.660Z,69.12
2023-05-04T22:35:40.009Z,68.22
2023-05-04T22:38:06.715Z,68.19
2023-05-04T22:40:33.204Z,67.86
2023-05-04T22:42:59.513Z,67.50
2023-05-04T22:45:25.993Z,68.07
2023-05-04T22:47:52.437Z,67.75
2023-05-04T22:50:19.592Z,67.51
2023-05-04T22:52:45.988Z,67.71
2023-05-04T22:55:12.444Z,68.92
2023-05-04T22:57:38.858Z,68.71
2023-05-04T23:00:07.465Z,68.96
2023-05-04T23:02:34.524Z,69.11
2023-05-04T23:05:01.261Z,68.66
2023-05-04T23:07:27.611Z,68.86
2023-05-04T23:09:54.294Z,69.38
2023-05-04T23:12:20.627Z,68.89
2023-05-04T23:14:49.575Z,69.68
2023-05-04T23:17:15.972Z,70.28
2023-05-04T23:19:42.373Z,70.69
2023-05-04T23:22:08.674Z,70.08
2023-05-04T23:24:35.118Z,70.37
2023-05-04T23:27:02.061Z,70.53
2023-05-04T23:29:28.504Z,70.72
2023-05-04T23:31:55.026Z,70.84
2023-05-04T23:34:21.404Z,70.89
2023-05-04T23:36:47.804Z,71.22
2023-05-04T23:39:14.337Z,70.99
2023-05-04T23:41:43.281Z,71.90
2023-05-04T23:44:09.727Z,71.87
2023-05-04T23:46:36.094Z,72.59
2023-05-04T23:49:02.422Z,72.71
2023-05-04T23:51:28.800Z,72.60
2023-05-04T23:53:55.802Z,73.12
2023-05-04T23:56:22.201Z,73.64
2023-05-04T23:58:48.556Z,73.49
